Time;durP1;ratioP1;P1;durP2;ratioP2;P2;SDS_P1;SDS_P2;PMS_P1;PMS_P2;Temp;Humidity;BMP_temperature;BMP_pressure;BME280_temperature;BME280_humidity;BME280_pressure;Samples;Min_cycle;Max_cycle;Signal;HPM_P1;HPM_P2
2022/07/04 00:00:07;;;;;;;3.13;1.40;;;20.70;99.90;;;;;;5013911;28;20967;-78
2022/07/04 00:02:33;;;;;;;3.73;1.33;;;20.70;99.90;;;;;;4995897;28;20670;-79
2022/07/04 00:04:59;;;;;;;3.13;1.40;;;20.70;99.90;;;;;;4996447;28;20868;-79
2022/07/04 00:07:25;;;;;;;1.80;1.53;;;20.50;99.90;;;;;;4983930;28;20429;-79
2022/07/04 00:09:50;;;;;;;2.03;1.47;;;20.40;99.90;;;;;;4982965;28;20485;-81
2022/07/04 00:12:16;;;;;;;3.10;1.67;;;20.30;99.90;;;;;;4983386;28;20189;-80
2022/07/04 00:14:42;;;;;;;4.07;1.07;;;20.40;99.90;;;;;;4997973;28;20737;-80
2022/07/04 00:17:07;;;;;;;1.80;1.17;;;20.40;99.90;;;;;;4981927;28;20610;-81
2022/07/04 00:19:34;;;;;;;4.33;1.30;;;20.40;99.90;;;;;;4982385;28;20205;-81
2022/07/04 00:22:00;;;;;;;1.93;1.20;;;20.40;99.90;;;;;;5000478;28;20555;-81
2022/07/04 00:24:25;;;;;;;1.30;1.00;;;20.40;99.90;;;;;;5018718;28;20446;-80
2022/07/04 00:26:51;;;;;;;2.80;1.37;;;20.40;99.90;;;;;;5017035;28;20420;-79
2022/07/04 00:29:17;;;;;;;5.03;1.37;;;20.40;99.90;;;;;;4998145;28;20196;-80
2022/07/04 00:31:43;;;;;;;1.90;1.33;;;20.40;99.90;;;;;;4997844;28;20189;-79
2022/07/04 00:34:11;;;;;;;1.50;1.30;;;20.30;99.90;;;;;;4980115;28;20292;-78
2022/07/04 00:36:37;;;;;;;3.83;1.57;;;20.30;99.90;;;;;;5013909;28;20193;-79
2022/07/04 00:39:03;;;;;;;1.80;1.53;;;20.20;99.90;;;;;;4996483;28;21057;-79
2022/07/04 00:41:29;;;;;;;1.23;1.13;;;20.10;99.90;;;;;;4996934;28;20194;-79
2022/07/04 00:44:06;;;;;;;3.10;1.30;;;20.00;99.90;;;;;;4996595;28;20754;-79
2022/07/04 00:46:32;;;;;;;1.13;1.03;;;20.10;99.90;;;;;;4979695;28;20455;-79
2022/07/04 00:48:58;;;;;;;2.90;1.10;;;20.10;99.90;;;;;;4978029;28;20515;-80
2022/07/04 00:51:24;;;;;;;1.20;1.10;;;20.10;99.90;;;;;;4978735;28;20608;-79
2022/07/04 00:53:52;;;;;;;1.37;1.20;;;20.10;99.90;;;;;;4994977;28;20862;-81
2022/07/04 00:56:18;;;;;;;1.53;1.40;;;20.10;99.90;;;;;;4994754;28;20519;-81
2022/07/04 00:58:48;;;;;;;1.43;1.20;;;20.10;99.90;;;;;;4978616;28;20644;-81
2022/07/04 01:01:13;;;;;;;2.47;1.23;;;20.00;99.90;;;;;;4995671;28;20181;-81
2022/07/04 01:03:39;;;;;;;3.77;1.47;;;20.00;99.90;;;;;;4995011;28;20514;-81
2022/07/04 01:06:10;;;;;;;2.70;1.43;;;19.90;99.90;;;;;;4978636;28;20212;-81
2022/07/04 01:08:39;;;;;;;2.90;1.33;;;19.90;99.90;;;;;;4979044;28;20430;-80
2022/07/04 01:11:05;;;;;;;2.07;1.80;;;19.90;99.90;;;;;;4978042;28;20433;-80
2022/07/04 01:13:31;;;;;;;1.60;1.50;;;19.70;99.90;;;;;;5011593;28;20432;-79
2022/07/04 01:15:56;;;;;;;4.00;1.60;;;19.70;99.90;;;;;;4993661;28;20543;-80
2022/07/04 01:18:22;;;;;;;2.90;1.70;;;19.60;99.90;;;;;;4977285;28;20472;-79
2022/07/04 01:20:48;;;;;;;4.10;1.70;;;19.40;99.90;;;;;;4993732;28;20204;-80
2022/07/04 01:23:14;;;;;;;3.63;2.00;;;19.20;99.90;;;;;;4977794;28;20196;-79
2022/07/04 01:25:39;;;;;;;5.20;1.80;;;19.10;99.90;;;;;;4993733;28;20267;-80
2022/07/04 01:28:06;;;;;;;2.73;1.50;;;19.00;99.90;;;;;;4977110;28;20250;-79
2022/07/04 01:30:33;;;;;;;2.27;1.27;;;18.90;99.90;;;;;;5011164;28;20550;-80
2022/07/04 01:32:59;;;;;;;1.93;1.73;;;19.00;99.90;;;;;;4994085;28;20428;-80
2022/07/04 01:35:25;;;;;;;3.23;1.77;;;19.10;99.90;;;;;;4993122;28;20449;-80
2022/07/04 01:37:51;;;;;;;10.70;2.07;;;19.20;99.90;;;;;;4976526;28;20262;-79
2022/07/04 01:40:17;;;;;;;2.87;1.60;;;19.20;99.90;;;;;;5010653;28;20207;-80
2022/07/04 01:42:43;;;;;;;2.67;1.90;;;19.30;99.90;;;;;;4976620;28;20443;-80
2022/07/04 01:45:10;;;;;;;3.23;1.63;;;19.20;99.90;;;;;;4992440;28;20451;-80
2022/07/04 01:47:36;;;;;;;3.73;1.80;;;19.10;99.90;;;;;;4976586;28;20428;-80
2022/07/04 01:50:03;;;;;;;8.63;1.63;;;19.00;99.90;;;;;;4992573;28;20424;-79
2022/07/04 01:52:28;;;;;;;3.40;1.60;;;19.00;99.90;;;;;;5010179;28;20431;-79
2022/07/04 01:54:54;;;;;;;3.47;1.87;;;19.00;99.90;;;;;;4994196;28;20453;-79
2022/07/04 01:57:19;;;;;;;5.03;1.83;;;18.80;99.90;;;;;;4995110;28;20300;-79
2022/07/04 02:02:29;;;;;;;3.30;1.50;;;18.60;99.90;;;;;;4996065;28;20194;-81
2022/07/04 02:04:55;;;;;;;2.80;1.70;;;18.60;99.90;;;;;;4976665;28;20448;-81
2022/07/04 02:07:21;;;;;;;1.40;1.30;;;18.60;99.90;;;;;;5010891;28;20244;-80
2022/07/04 02:09:47;;;;;;;3.73;2.03;;;18.80;99.90;;;;;;4993082;28;20646;-80
2022/07/04 02:14:56;;;;;;;4.60;1.90;;;19.00;99.90;;;;;;4996084;28;20517;-80
2022/07/04 02:17:22;;;;;;;2.90;1.47;;;19.00;99.90;;;;;;5010613;28;20838;-80
2022/07/04 02:19:48;;;;;;;2.50;1.73;;;19.10;99.90;;;;;;4976644;28;20220;-81
2022/07/04 02:22:14;;;;;;;5.30;1.67;;;19.10;99.90;;;;;;4976698;28;20181;-80
2022/07/04 02:24:40;;;;;;;2.80;1.53;;;19.10;99.90;;;;;;4992914;28;20193;-79
2022/07/04 02:27:06;;;;;;;6.07;1.93;;;19.20;99.90;;;;;;4992594;28;20446;-79
2022/07/04 02:29:31;;;;;;;2.63;1.90;;;19.20;99.90;;;;;;5010438;28;20424;-78
2022/07/04 02:31:57;;;;;;;2.93;1.90;;;19.30;99.90;;;;;;5010294;28;20180;-78
2022/07/04 02:34:23;;;;;;;2.50;1.70;;;19.30;99.90;;;;;;4992515;28;20220;-78
2022/07/04 02:36:49;;;;;;;4.90;1.73;;;19.40;99.90;;;;;;4992080;28;20199;-79
2022/07/04 02:39:14;;;;;;;3.30;1.90;;;19.40;99.90;;;;;;4992164;28;20212;-79
2022/07/04 02:41:40;;;;;;;5.43;1.87;;;19.30;99.90;;;;;;5009665;28;20183;-78
2022/07/04 02:44:06;;;;;;;2.80;1.70;;;19.10;99.90;;;;;;5010554;28;20179;-79
2022/07/04 02:46:32;;;;;;;3.10;1.77;;;19.00;99.90;;;;;;4976463;28;20227;-79
2022/07/04 02:48:58;;;;;;;1.70;1.60;;;19.00;99.90;;;;;;4978140;28;20242;-79
2022/07/04 02:51:24;;;;;;;3.10;1.70;;;19.00;99.90;;;;;;5012538;28;20567;-79
2022/07/04 02:53:50;;;;;;;2.80;1.90;;;19.00;99.90;;;;;;5012602;28;20563;-78
2022/07/04 02:56:16;;;;;;;4.40;2.30;;;19.10;99.90;;;;;;5011197;28;20212;-80
2022/07/04 02:58:41;;;;;;;7.00;2.60;;;19.10;99.90;;;;;;4996656;28;20806;-80
2022/07/04 03:01:07;;;;;;;2.67;1.73;;;19.10;99.90;;;;;;4996926;28;20192;-79
2022/07/04 03:03:33;;;;;;;2.70;1.90;;;19.10;99.90;;;;;;4997533;28;20295;-80
2022/07/04 03:05:59;;;;;;;2.80;1.77;;;19.10;99.90;;;;;;5004473;28;20480;-80
2022/07/04 03:08:24;;;;;;;4.30;1.50;;;19.20;99.90;;;;;;4984675;28;20256;-80
2022/07/04 03:10:53;;;;;;;2.90;1.90;;;19.10;99.90;;;;;;4999429;28;20189;-80
2022/07/04 03:13:19;;;;;;;4.97;1.60;;;19.20;99.90;;;;;;4985831;28;20219;-80
2022/07/04 03:15:45;;;;;;;4.50;1.90;;;19.20;99.90;;;;;;5003377;28;20452;-80
2022/07/04 03:18:11;;;;;;;1.83;1.50;;;19.10;99.90;;;;;;5001661;28;20460;-80
2022/07/04 03:20:37;;;;;;;2.50;1.70;;;19.10;99.90;;;;;;4996941;28;20257;-80
2022/07/04 03:23:02;;;;;;;5.23;1.70;;;19.10;99.90;;;;;;4996782;28;20423;-80
2022/07/04 03:25:29;;;;;;;2.97;1.67;;;19.20;99.90;;;;;;4997269;28;20273;-80
2022/07/04 03:27:54;;;;;;;4.80;2.00;;;19.20;99.90;;;;;;5013428;28;20177;-81
2022/07/04 03:30:20;;;;;;;2.23;1.90;;;19.20;99.90;;;;;;4984897;28;20411;-78
2022/07/04 03:32:46;;;;;;;2.50;1.63;;;19.10;99.90;;;;;;5006776;28;20231;-81
2022/07/04 03:35:12;;;;;;;2.50;1.53;;;19.10;99.90;;;;;;4976334;28;21314;-79
2022/07/04 03:37:37;;;;;;;3.63;1.30;;;19.10;99.90;;;;;;4991459;28;20197;-79
2022/07/04 03:40:04;;;;;;;3.07;1.83;;;19.10;99.90;;;;;;4991433;28;20213;-79
2022/07/04 03:42:29;;;;;;;5.57;1.90;;;19.10;99.90;;;;;;4975682;28;20300;-80
2022/07/04 03:44:55;;;;;;;1.80;1.53;;;19.00;99.90;;;;;;4977141;28;20530;-79
2022/07/04 03:47:21;;;;;;;1.60;1.50;;;19.00;99.90;;;;;;5010819;28;20280;-79
2022/07/04 03:49:46;;;;;;;2.50;1.57;;;19.10;99.90;;;;;;4992983;28;20878;-79
2022/07/04 03:52:12;;;;;;;6.80;2.10;;;19.10;99.90;;;;;;4993089;28;20185;-79
2022/07/04 03:54:38;;;;;;;2.60;1.70;;;19.10;99.90;;;;;;4976676;28;20653;-80
2022/07/04 03:57:04;;;;;;;5.50;2.00;;;19.10;99.90;;;;;;4993139;28;20182;-80
2022/07/04 03:59:30;;;;;;;4.93;2.60;;;19.10;99.90;;;;;;4975486;28;20471;-78
2022/07/04 04:01:56;;;;;;;6.40;1.83;;;19.00;99.90;;;;;;4990327;28;20420;-78
2022/07/04 04:07:06;;;;;;;7.67;1.97;;;19.00;99.90;;;;;;4993217;28;20424;-78
2022/07/04 04:09:32;;;;;;;2.23;1.73;;;19.00;99.90;;;;;;5008140;28;21094;-78
2022/07/04 04:11:57;;;;;;;3.00;1.80;;;19.00;99.90;;;;;;4974078;28;20282;-78
2022/07/04 04:14:24;;;;;;;5.13;1.80;;;19.00;99.90;;;;;;5008071;28;20548;-78
2022/07/04 04:16:50;;;;;;;5.53;2.00;;;19.10;99.90;;;;;;4990782;28;20186;-78
2022/07/04 04:19:16;;;;;;;2.00;1.50;;;19.10;99.90;;;;;;4974592;28;20471;-78
2022/07/04 04:21:41;;;;;;;2.07;1.87;;;19.10;99.90;;;;;;4990989;28;20186;-79
2022/07/04 04:24:07;;;;;;;3.43;1.90;;;19.10;99.90;;;;;;4992162;28;20185;-79
2022/07/04 04:26:34;;;;;;;4.70;2.40;;;19.10;99.90;;;;;;4994088;28;20246;-78
2022/07/04 04:28:59;;;;;;;3.17;2.30;;;19.10;99.90;;;;;;5011909;28;20420;-79
2022/07/04 04:31:26;;;;;;;3.47;1.90;;;19.00;99.90;;;;;;5012127;28;20420;-79
2022/07/04 04:33:52;;;;;;;3.00;1.50;;;19.00;99.90;;;;;;4994083;28;20338;-79
2022/07/04 04:36:17;;;;;;;3.87;1.80;;;19.00;99.90;;;;;;5011638;28;20514;-79
2022/07/04 04:38:43;;;;;;;6.30;2.43;;;19.00;99.90;;;;;;4994008;28;20738;-79
2022/07/04 04:41:09;;;;;;;5.50;2.33;;;19.10;99.90;;;;;;4993852;28;20188;-78
2022/07/04 04:43:35;;;;;;;9.70;2.13;;;19.10;99.90;;;;;;4977554;28;20431;-78
2022/07/04 04:46:00;;;;;;;2.03;1.90;;;19.10;99.90;;;;;;4976926;28;20215;-78
2022/07/04 04:48:26;;;;;;;1.63;1.40;;;19.10;99.90;;;;;;4993712;28;20200;-79
2022/07/04 04:50:52;;;;;;;2.20;1.70;;;19.10;99.90;;;;;;4993337;28;20272;-79
2022/07/04 04:53:17;;;;;;;3.40;1.77;;;19.20;99.90;;;;;;4993856;28;20202;-79
2022/07/04 04:55:43;;;;;;;5.50;2.10;;;19.20;99.90;;;;;;4977475;28;20217;-79
2022/07/04 04:58:09;;;;;;;1.97;1.60;;;19.20;99.90;;;;;;4977443;28;20238;-79
2022/07/04 05:00:35;;;;;;;7.70;2.80;;;19.20;99.90;;;;;;4993507;28;20187;-78
2022/07/04 05:03:00;;;;;;;7.23;2.13;;;19.20;99.90;;;;;;4977258;28;20424;-79
2022/07/04 05:05:26;;;;;;;7.07;2.00;;;19.20;99.90;;;;;;4977245;28;20264;-78
2022/07/04 05:07:52;;;;;;;4.63;1.90;;;19.30;99.90;;;;;;4976919;28;20288;-79
2022/07/04 05:10:18;;;;;;;3.23;2.10;;;19.30;99.90;;;;;;4993964;28;20209;-78
2022/07/04 05:12:43;;;;;;;5.07;1.90;;;19.30;99.90;;;;;;4993604;28;20420;-78
2022/07/04 05:15:10;;;;;;;3.37;1.63;;;19.30;99.90;;;;;;5010980;28;20271;-79
2022/07/04 05:17:36;;;;;;;6.63;2.63;;;19.30;99.90;;;;;;5011060;28;20186;-78
2022/07/04 05:20:02;;;;;;;3.00;1.90;;;19.30;99.90;;;;;;5010472;28;20466;-78
2022/07/04 05:22:28;;;;;;;6.23;2.00;;;19.40;99.90;;;;;;4993290;28;20423;-78
2022/07/04 05:24:56;;;;;;;2.60;2.20;;;19.40;99.90;;;;;;5010787;28;20461;-78
2022/07/04 05:27:22;;;;;;;6.80;1.87;;;19.40;99.90;;;;;;5011326;28;20183;-79
2022/07/04 05:29:47;;;;;;;2.67;2.00;;;19.50;99.90;;;;;;4977011;28;20813;-78
2022/07/04 05:32:13;;;;;;;4.33;1.80;;;19.50;99.90;;;;;;4993418;28;20589;-78
2022/07/04 05:34:38;;;;;;;4.00;2.20;;;19.50;99.90;;;;;;4993267;28;20260;-78
2022/07/04 05:37:04;;;;;;;4.53;2.20;;;19.60;99.90;;;;;;5013478;28;20187;-78
2022/07/04 05:39:30;;;;;;;3.30;2.13;;;19.60;99.90;;;;;;4994289;28;20272;-79
2022/07/04 05:41:56;;;;;;;3.77;2.00;;;19.70;99.90;;;;;;4995660;28;20455;-78
2022/07/04 05:44:21;;;;;;;3.30;1.90;;;19.80;99.90;;;;;;4994343;28;20187;-78
2022/07/04 05:46:47;;;;;;;2.60;2.20;;;19.70;99.90;;;;;;4977784;28;20656;-78
2022/07/04 05:49:13;;;;;;;8.17;2.13;;;19.80;99.90;;;;;;5011364;28;20185;-79
2022/07/04 05:51:38;;;;;;;3.30;2.30;;;19.90;99.90;;;;;;5011596;28;20348;-78
2022/07/04 05:54:04;;;;;;;4.23;2.73;;;20.00;99.90;;;;;;4993353;28;20195;-78
2022/07/04 05:56:30;;;;;;;10.70;2.83;;;20.20;99.90;;;;;;4977208;28;20216;-78
2022/07/04 05:58:56;;;;;;;2.20;2.00;;;20.30;99.90;;;;;;4976082;28;20264;-77
2022/07/04 06:01:21;;;;;;;3.07;2.10;;;20.30;99.90;;;;;;4992484;28;20475;-78
2022/07/04 06:03:47;;;;;;;6.87;2.47;;;20.30;99.90;;;;;;4992468;28;20188;-78
2022/07/04 06:06:13;;;;;;;2.67;2.23;;;20.30;99.90;;;;;;4992161;28;20204;-78
2022/07/04 06:08:39;;;;;;;2.43;2.03;;;20.40;99.90;;;;;;5010459;28;20431;-79
2022/07/04 06:11:05;;;;;;;7.40;1.90;;;20.40;99.90;;;;;;4979894;28;20432;-79
2022/07/04 06:13:30;;;;;;;4.27;2.20;;;20.40;99.90;;;;;;4979584;28;20300;-79
2022/07/04 06:15:56;;;;;;;7.03;2.23;;;20.50;99.90;;;;;;4995287;28;20300;-79
2022/07/04 06:18:22;;;;;;;4.33;1.90;;;20.50;99.90;;;;;;5013291;28;20693;-79
2022/07/04 06:20:47;;;;;;;6.10;1.80;;;20.60;99.90;;;;;;4994948;28;20271;-79
2022/07/04 06:23:13;;;;;;;6.03;1.83;;;20.50;99.90;;;;;;4977940;28;20193;-79
2022/07/04 06:25:39;;;;;;;2.50;1.97;;;20.50;99.90;;;;;;4994816;28;20671;-79
2022/07/04 06:28:04;;;;;;;4.60;2.10;;;20.50;99.90;;;;;;4994723;28;20718;-79
2022/07/04 06:30:30;;;;;;;3.83;1.73;;;20.40;99.90;;;;;;5012873;28;20185;-79
2022/07/04 06:32:57;;;;;;;5.53;2.30;;;20.50;99.90;;;;;;5012176;28;20195;-79
2022/07/04 06:38:09;;;;;;;5.00;2.40;;;20.50;99.90;;;;;;5011762;28;20476;-79
2022/07/04 06:40:36;;;;;;;4.83;2.43;;;20.50;99.90;;;;;;5012081;28;20443;-78
2022/07/04 06:43:03;;;;;;;3.80;2.20;;;20.50;99.90;;;;;;4994788;28;20420;-78
2022/07/04 06:45:29;;;;;;;7.90;1.83;;;20.60;99.90;;;;;;4994219;28;20443;-79
2022/07/04 06:47:54;;;;;;;4.20;1.87;;;20.60;99.90;;;;;;4993252;28;20424;-79
2022/07/04 06:50:20;;;;;;;4.90;2.37;;;20.60;99.90;;;;;;5011625;28;20428;-79
2022/07/04 06:52:46;;;;;;;4.17;2.03;;;20.80;99.90;;;;;;4993744;28;20185;-78
2022/07/04 06:55:12;;;;;;;5.90;1.70;;;20.80;99.90;;;;;;4994388;28;20459;-79
2022/07/04 06:57:38;;;;;;;5.90;2.13;;;20.80;99.90;;;;;;4978134;28;20435;-78
2022/07/04 07:00:06;;;;;;;7.93;2.70;;;20.80;99.90;;;;;;4993470;28;20222;-79
2022/07/04 07:02:34;;;;;;;3.80;2.03;;;20.80;99.90;;;;;;4993492;28;20428;-78
2022/07/04 07:05:00;;;;;;;5.90;2.13;;;20.70;99.90;;;;;;4977096;28;20493;-79
2022/07/04 07:07:27;;;;;;;4.93;2.70;;;20.70;99.90;;;;;;4976209;28;20456;-78
2022/07/04 07:09:53;;;;;;;2.87;2.60;;;20.70;99.90;;;;;;4992156;28;20247;-78
2022/07/04 07:12:20;;;;;;;2.40;1.73;;;20.60;99.90;;;;;;4991471;28;20435;-78
2022/07/04 07:14:45;;;;;;;5.53;2.30;;;20.60;99.90;;;;;;4991602;28;20987;-78
2022/07/04 07:17:11;;;;;;;8.80;2.10;;;20.50;99.90;;;;;;4975497;28;20431;-78
2022/07/04 07:19:37;;;;;;;6.63;2.23;;;20.50;99.90;;;;;;4991232;28;20216;-78
2022/07/04 07:22:03;;;;;;;3.67;2.20;;;20.40;99.90;;;;;;4991111;28;20185;-78
2022/07/04 07:24:30;;;;;;;6.80;2.80;;;20.40;99.90;;;;;;5008247;28;20272;-78
2022/07/04 07:26:56;;;;;;;7.67;2.40;;;20.30;99.90;;;;;;5008318;28;20183;-78
2022/07/04 07:29:23;;;;;;;2.70;1.93;;;20.40;99.90;;;;;;5007693;28;20428;-78
2022/07/04 07:31:49;;;;;;;4.50;2.00;;;20.50;99.90;;;;;;5008800;28;20431;-79
2022/07/04 07:34:14;;;;;;;4.37;2.67;;;20.40;99.90;;;;;;4978622;28;20925;-79
2022/07/04 07:36:40;;;;;;;4.00;2.37;;;20.50;99.90;;;;;;4994372;28;20654;-79
2022/07/04 07:39:06;;;;;;;1.87;1.60;;;20.50;99.90;;;;;;4993949;28;20221;-79
2022/07/04 07:41:31;;;;;;;5.10;2.70;;;20.60;99.90;;;;;;4995224;28;20268;-79
2022/07/04 07:43:57;;;;;;;3.90;2.13;;;20.60;99.90;;;;;;4979013;28;20275;-79
2022/07/04 07:46:23;;;;;;;7.93;2.10;;;20.70;99.90;;;;;;4979280;28;20231;-79
2022/07/04 07:48:49;;;;;;;3.63;2.20;;;20.70;99.90;;;;;;4996030;28;20189;-79
2022/07/04 07:51:16;;;;;;;2.23;1.93;;;20.70;99.90;;;;;;4996484;28;20185;-79
2022/07/04 07:53:42;;;;;;;5.93;2.30;;;20.80;99.90;;;;;;5014309;28;20639;-79
2022/07/04 07:56:08;;;;;;;2.80;2.13;;;20.90;99.90;;;;;;5014735;28;20447;-79
2022/07/04 07:58:33;;;;;;;3.53;1.90;;;20.90;99.90;;;;;;4998164;28;20471;-79
2022/07/04 08:01:01;;;;;;;5.27;2.17;;;20.90;99.90;;;;;;5017237;28;20185;-79
2022/07/04 08:06:13;;;;;;;4.60;2.77;;;21.10;99.90;;;;;;5018445;28;20497;-79
2022/07/04 08:08:38;;;;;;;4.70;2.57;;;21.20;99.90;;;;;;4999856;28;20428;-78
2022/07/04 08:11:04;;;;;;;2.80;2.13;;;21.20;99.90;;;;;;4999380;28;20442;-79
2022/07/04 08:13:30;;;;;;;4.60;2.10;;;21.30;99.90;;;;;;4983008;28;20439;-79
2022/07/04 08:15:56;;;;;;;3.67;2.23;;;21.30;99.90;;;;;;5016994;28;20440;-79
2022/07/04 08:18:22;;;;;;;4.53;2.20;;;21.30;99.90;;;;;;5017171;28;20543;-79
2022/07/04 08:20:49;;;;;;;12.33;2.50;;;21.40;99.90;;;;;;5016423;28;20177;-79
2022/07/04 08:23:15;;;;;;;5.73;2.30;;;21.50;99.90;;;;;;4998586;28;20940;-79
2022/07/04 08:25:41;;;;;;;4.60;2.57;;;21.60;99.90;;;;;;5015882;28;20436;-79
2022/07/04 08:28:07;;;;;;;7.37;2.30;;;21.70;99.90;;;;;;5016231;28;20460;-79
2022/07/04 08:30:33;;;;;;;2.40;2.20;;;21.80;99.90;;;;;;5015768;28;20417;-79
2022/07/04 08:32:58;;;;;;;4.27;2.60;;;21.90;99.90;;;;;;5015780;28;20180;-79
2022/07/04 08:35:25;;;;;;;6.70;2.53;;;22.10;99.90;;;;;;5016458;28;20205;-79
2022/07/04 08:37:53;;;;;;;6.50;2.70;;;22.10;99.90;;;;;;5002743;28;20178;-80
2022/07/04 08:40:23;;;;;;;4.20;2.60;;;22.20;99.90;;;;;;5023186;28;20494;-80
2022/07/04 08:42:49;;;;;;;7.27;2.47;;;22.20;99.90;;;;;;4988846;28;20432;-80
2022/07/04 08:45:16;;;;;;;8.60;2.37;;;22.20;99.90;;;;;;5006278;28;20434;-81
2022/07/04 08:47:43;;;;;;;7.50;2.57;;;22.20;99.90;;;;;;4988161;28;20422;-80
2022/07/04 08:50:19;;;;;;;7.37;2.17;;;22.20;99.90;;;;;;5022666;28;20420;-79
2022/07/04 08:52:55;;;;;;;3.17;2.30;;;22.20;99.90;;;;;;4994944;28;20528;-79
2022/07/04 08:58:25;;;;;;;7.97;1.90;;;22.40;99.90;;;;;;4995150;28;20432;-80
2022/07/04 09:00:55;;;;;;;5.53;2.40;;;22.40;99.90;;;;;;4992131;28;20449;-81
2022/07/04 09:03:22;;;;;;;5.50;2.40;;;22.40;99.90;;;;;;4992150;28;20430;-81
2022/07/04 09:05:48;;;;;;;4.70;2.23;;;22.50;99.90;;;;;;4991901;28;21039;-81
2022/07/04 09:08:14;;;;;;;6.03;2.47;;;22.50;99.90;;;;;;4975618;28;20441;-81
2022/07/04 09:10:40;;;;;;;4.30;1.87;;;22.70;99.90;;;;;;4975046;28;20926;-81
2022/07/04 09:13:07;;;;;;;13.60;2.43;;;22.80;99.90;;;;;;5009332;28;20281;-81
2022/07/04 09:15:33;;;;;;;4.60;2.10;;;22.90;99.90;;;;;;4991736;28;20681;-81
2022/07/04 09:18:00;;;;;;;3.00;2.30;;;23.10;99.90;;;;;;4975536;28;20428;-81
2022/07/04 09:20:26;;;;;;;5.00;2.17;;;23.20;99.90;;;;;;4975177;28;20440;-81
2022/07/04 09:22:54;;;;;;;7.17;2.93;;;23.20;99.90;;;;;;4991732;28;20931;-81
2022/07/04 09:25:21;;;;;;;4.47;2.30;;;23.40;99.90;;;;;;5009273;28;20472;-81
2022/07/04 09:27:52;;;;;;;5.87;2.57;;;23.50;99.90;;;;;;4991977;28;20429;-81
2022/07/04 09:30:20;;;;;;;4.03;1.70;;;23.40;99.90;;;;;;4992778;28;21009;-82
2022/07/04 09:32:51;;;;;;;7.00;2.20;;;23.60;99.90;;;;;;5010276;28;20923;-82
2022/07/04 09:35:23;;;;;;;5.03;1.97;;;24.00;99.90;;;;;;5010095;28;20477;-82
2022/07/04 09:37:55;;;;;;;5.57;2.10;;;24.20;99.90;;;;;;4976663;28;20439;-82
2022/07/04 09:40:29;;;;;;;3.10;2.00;;;24.30;99.90;;;;;;4992914;28;20517;-82
2022/07/04 09:42:57;;;;;;;2.87;2.20;;;24.50;99.90;;;;;;5010390;28;20427;-82
2022/07/04 09:45:26;;;;;;;3.53;2.10;;;24.40;99.90;;;;;;5011211;28;20457;-82
2022/07/04 09:47:57;;;;;;;4.90;2.37;;;24.50;99.90;;;;;;5012710;28;20524;-82
2022/07/04 09:50:25;;;;;;;3.27;2.33;;;24.50;99.90;;;;;;4993118;28;20506;-81
2022/07/04 09:52:59;;;;;;;5.47;2.60;;;24.50;99.90;;;;;;4993762;28;20488;-81
2022/07/04 09:55:24;;;;;;;6.63;2.60;;;24.30;99.90;;;;;;4977107;28;20869;-81
2022/07/04 09:57:51;;;;;;;4.83;2.20;;;24.10;99.90;;;;;;4993460;28;20995;-81
2022/07/04 10:00:28;;;;;;;2.30;2.03;;;24.50;99.90;;;;;;4977041;28;20315;-82
2022/07/04 10:03:15;;;;;;;3.50;2.57;;;24.80;99.90;;;;;;5019385;28;20450;-81
2022/07/04 10:05:41;;;;;;;5.23;2.50;;;25.00;99.90;;;;;;4996230;28;20467;-81
2022/07/04 10:08:06;;;;;;;4.53;2.40;;;25.30;99.90;;;;;;5012109;28;20427;-81
2022/07/04 10:10:39;;;;;;;4.43;2.43;;;25.30;99.90;;;;;;4978595;28;20215;-81
2022/07/04 10:13:07;;;;;;;6.00;1.80;;;25.70;99.00;;;;;;4994103;28;20189;-81
2022/07/04 10:15:37;;;;;;;5.63;2.30;;;26.00;99.70;;;;;;4976600;28;20880;-81
2022/07/04 10:18:04;;;;;;;3.53;1.83;;;26.50;99.60;;;;;;4992024;28;21047;-81
2022/07/04 10:20:30;;;;;;;5.63;2.20;;;26.80;99.90;;;;;;4991441;28;20805;-81
2022/07/04 10:22:56;;;;;;;3.50;2.17;;;27.10;97.80;;;;;;4990787;28;20447;-81
2022/07/04 10:25:22;;;;;;;6.57;2.10;;;27.20;96.50;;;;;;4991775;28;20443;-81
2022/07/04 10:27:50;;;;;;;10.13;2.47;;;27.00;96.70;;;;;;4975397;28;20442;-77
2022/07/04 10:30:21;;;;;;;3.23;2.00;;;26.70;97.40;;;;;;5009126;28;20435;-78
2022/07/04 10:32:48;;;;;;;8.83;2.40;;;26.60;98.80;;;;;;4992796;28;20423;-78
2022/07/04 10:35:15;;;;;;;4.30;1.90;;;26.70;99.20;;;;;;4991237;28;20462;-78
2022/07/04 10:38:04;;;;;;;5.33;1.80;;;26.80;97.10;;;;;;5008727;28;20455;-78
2022/07/04 10:41:03;;;;;;;5.73;1.90;;;26.90;96.70;;;;;;4990871;28;20447;-77
2022/07/04 10:43:34;;;;;;;5.17;2.20;;;27.10;95.50;;;;;;4990145;28;20428;-77
2022/07/04 10:46:06;;;;;;;1.97;1.80;;;27.20;95.50;;;;;;5007746;28;20442;-77
2022/07/04 10:48:32;;;;;;;4.80;2.37;;;27.50;94.90;;;;;;4989881;28;20420;-76
2022/07/04 10:51:02;;;;;;;3.17;2.30;;;27.90;95.00;;;;;;5007542;28;20482;-76
2022/07/04 10:53:29;;;;;;;5.57;2.13;;;28.20;94.60;;;;;;4990236;28;20434;-76
2022/07/04 10:56:23;;;;;;;2.20;2.00;;;28.40;94.90;;;;;;5007520;28;20440;-76
2022/07/04 10:58:50;;;;;;;3.50;2.20;;;28.60;94.20;;;;;;4940505;28;20546;-76
2022/07/04 11:01:18;;;;;;;3.23;1.70;;;28.70;93.70;;;;;;5007626;28;20416;-76
2022/07/04 11:03:54;;;;;;;1.80;1.70;;;28.90;93.30;;;;;;5007445;28;20478;-76
2022/07/04 11:06:36;;;;;;;2.23;1.77;;;29.00;91.70;;;;;;4974086;28;20538;-76
2022/07/04 11:09:23;;;;;;;2.43;1.93;;;29.00;87.60;;;;;;5008018;28;20430;-76
2022/07/04 11:12:04;;;;;;;2.33;1.90;;;29.10;87.70;;;;;;4990289;28;20937;-76
2022/07/04 11:14:40;;;;;;;2.03;1.67;;;29.70;88.60;;;;;;5007909;28;20419;-76
2022/07/04 11:17:12;;;;;;;7.00;2.33;;;29.50;86.70;;;;;;5008087;28;20497;-76
2022/07/04 11:19:39;;;;;;;2.40;2.20;;;29.10;85.00;;;;;;5007742;28;20456;-76
2022/07/04 11:22:06;;;;;;;4.63;2.20;;;28.60;89.60;;;;;;5009125;28;20416;-76
2022/07/04 11:24:32;;;;;;;3.63;2.13;;;28.90;91.00;;;;;;5009174;28;20417;-76
2022/07/04 11:26:58;;;;;;;5.13;1.50;;;29.20;88.10;;;;;;4999234;28;20431;-76
2022/07/04 11:29:24;;;;;;;4.70;1.60;;;29.20;88.60;;;;;;4993054;28;20424;-75
2022/07/04 11:31:51;;;;;;;2.30;1.80;;;28.90;85.50;;;;;;4992352;28;20193;-76
2022/07/04 11:34:18;;;;;;;2.13;1.50;;;28.70;87.20;;;;;;5012367;28;20481;-76
2022/07/04 11:36:46;;;;;;;3.13;1.60;;;28.50;86.50;;;;;;5012625;28;20489;-76
2022/07/04 11:39:18;;;;;;;6.60;1.67;;;28.70;87.10;;;;;;5012429;28;20569;-76
2022/07/04 11:47:22;;;;;;;6.23;2.20;;;29.30;83.80;;;;;;5013629;28;20423;-76
2022/07/04 11:49:56;;;;;;;4.90;1.40;;;29.50;82.60;;;;;;5011651;28;20440;-76
2022/07/04 11:52:24;;;;;;;3.03;1.80;;;29.80;83.80;;;;;;4977211;28;20432;-76
2022/07/04 11:54:51;;;;;;;2.73;1.30;;;30.20;81.60;;;;;;5010849;28;20534;-76
2022/07/04 11:57:21;;;;;;;1.97;1.77;;;30.20;81.00;;;;;;5010894;28;20447;-76
2022/07/04 11:59:59;;;;;;;3.10;1.93;;;30.40;82.60;;;;;;5010586;28;20463;-76
2022/07/04 12:02:26;;;;;;;6.10;1.70;;;30.40;80.90;;;;;;5010852;28;20415;-76
2022/07/04 12:04:52;;;;;;;3.20;1.53;;;30.40;80.70;;;;;;4992651;28;20448;-76
2022/07/04 12:07:20;;;;;;;5.50;1.97;;;30.20;80.40;;;;;;4993146;28;20753;-76
2022/07/04 12:09:47;;;;;;;1.80;1.70;;;30.30;81.60;;;;;;4992847;28;20436;-76
2022/07/04 12:12:16;;;;;;;5.80;2.10;;;30.30;80.80;;;;;;4992705;28;20420;-76
2022/07/04 12:15:00;;;;;;;5.37;1.80;;;29.80;81.00;;;;;;4993181;28;20447;-77
2022/07/04 12:17:44;;;;;;;2.83;2.03;;;29.80;80.30;;;;;;5011017;28;20423;-78
2022/07/04 12:20:17;;;;;;;3.53;1.60;;;30.00;82.70;;;;;;5010703;28;20512;-78
2022/07/04 12:22:50;;;;;;;7.80;1.97;;;30.10;81.70;;;;;;5010625;28;20446;-77
2022/07/04 12:25:34;;;;;;;2.87;1.60;;;30.00;81.80;;;;;;5010302;28;20446;-78
2022/07/04 12:28:02;;;;;;;2.73;1.90;;;30.00;80.30;;;;;;4992599;28;20482;-77
2022/07/04 12:30:30;;;;;;;4.97;1.50;;;30.00;82.10;;;;;;5010590;28;20918;-78
2022/07/04 12:33:07;;;;;;;3.13;2.20;;;30.10;80.60;;;;;;5010400;28;20997;-77
2022/07/04 12:35:39;;;;;;;1.93;1.70;;;30.50;80.00;;;;;;4993015;28;20435;-77
2022/07/04 12:38:09;;;;;;;4.93;2.07;;;30.60;78.70;;;;;;4992921;28;20928;-78
2022/07/04 12:40:37;;;;;;;2.23;2.00;;;30.50;74.60;;;;;;5010087;28;20444;-78
2022/07/04 12:43:03;;;;;;;4.13;1.57;;;30.50;79.10;;;;;;4992518;28;20428;-78
2022/07/04 12:45:43;;;;;;;2.87;1.70;;;30.60;78.90;;;;;;4991405;28;20440;-78
2022/07/04 12:48:22;;;;;;;2.10;1.73;;;30.60;77.30;;;;;;5010510;28;20507;-77
2022/07/04 12:50:48;;;;;;;2.80;1.77;;;30.50;77.00;;;;;;5010346;28;20421;-78
2022/07/04 12:53:14;;;;;;;3.37;1.73;;;30.30;76.50;;;;;;4992103;28;20493;-78
2022/07/04 12:55:44;;;;;;;1.80;1.70;;;30.30;75.90;;;;;;5010352;28;20490;-78
2022/07/04 12:58:11;;;;;;;5.40;1.87;;;30.40;75.80;;;;;;4991914;28;20420;-78
2022/07/04 13:00:38;;;;;;;2.37;2.17;;;30.50;75.30;;;;;;5010167;28;20431;-77
2022/07/04 13:03:04;;;;;;;3.70;1.70;;;30.50;75.00;;;;;;5010042;28;20523;-79
2022/07/04 13:05:30;;;;;;;2.80;1.50;;;29.90;73.00;;;;;;4992110;28;20571;-79
2022/07/04 13:07:56;;;;;;;3.57;1.73;;;29.90;77.20;;;;;;5010222;28;20184;-80